createdAt,value
2022-09-22T00:01:23.741Z,102302.19
2022-09-22T00:03:54.174Z,102300.03
2022-09-22T00:06:23.805Z,102298.91
2022-09-22T00:08:53.567Z,102299.69
2022-09-22T00:11:23.501Z,102294.59
2022-09-22T00:13:55.989Z,102288.06
2022-09-22T00:16:26.861Z,102291.44
2022-09-22T00:18:54.990Z,102297.19
2022-09-22T00:21:24.538Z,102290.31
2022-09-22T00:23:53.451Z,102288.94
2022-09-22T00:26:23.616Z,102291.09
2022-09-22T00:28:53.445Z,102291.28
2022-09-22T00:31:24.581Z,102287.03
2022-09-22T00:33:53.884Z,102281.78
2022-09-22T00:36:25.658Z,102284.75
2022-09-22T00:38:55.499Z,102280.25
2022-09-22T00:41:25.443Z,102284.00
2022-09-22T00:44:43.134Z,102287.16
2022-09-22T00:47:24.778Z,102284.84
2022-09-22T00:49:57.051Z,102286.09
2022-09-22T00:52:28.517Z,102283.19
2022-09-22T00:54:59.981Z,102274.31
2022-09-22T00:57:32.674Z,102285.31
2022-09-22T01:00:02.754Z,102281.78
2022-09-22T01:02:32.561Z,102290.97
2022-09-22T01:05:00.512Z,102279.34
2022-09-22T01:07:31.334Z,102282.59
2022-09-22T01:09:59.819Z,102274.81
2022-09-22T01:12:30.707Z,102278.38
2022-09-22T01:15:21.768Z,102268.81
2022-09-22T01:18:05.151Z,102277.81
2022-09-22T01:21:02.403Z,102281.28
2022-09-22T01:23:58.520Z,102274.50
2022-09-22T01:27:07.661Z,102275.34
2022-09-22T01:30:09.755Z,102275.31
2022-09-22T01:32:47.588Z,102275.75
2022-09-22T01:35:24.429Z,102275.84
2022-09-22T01:38:03.670Z,102272.97
2022-09-22T01:40:35.636Z,102271.59
2022-09-22T01:43:13.351Z,102270.72
2022-09-22T01:45:44.539Z,102273.31
2022-09-22T01:48:18.869Z,102269.78
2022-09-22T01:50:52.451Z,102267.38
2022-09-22T01:53:23.808Z,102269.66
2022-09-22T01:55:55.183Z,102274.88
2022-09-22T01:58:27.613Z,102260.44
2022-09-22T02:01:00.521Z,102271.31
2022-09-22T02:03:35.213Z,102277.06
2022-09-22T02:06:10.041Z,102278.97
2022-09-22T02:08:43.865Z,102272.41
2022-09-22T02:11:16.222Z,102273.59
2022-09-22T02:13:45.584Z,102269.28
2022-09-22T02:16:15.609Z,102270.06
2022-09-22T02:18:50.728Z,102269.72
2022-09-22T02:21:20.302Z,102275.88
2022-09-22T02:23:49.810Z,102275.97
2022-09-22T02:26:23.842Z,102277.00
2022-09-22T02:28:54.300Z,102277.06
2022-09-22T02:31:24.601Z,102276.03
2022-09-22T02:33:54.227Z,102277.78
2022-09-22T02:36:35.413Z,102283.06
2022-09-22T02:39:10.056Z,102279.19
2022-09-22T02:41:47.419Z,102276.13
2022-09-22T02:44:21.121Z,102276.06
2022-09-22T02:46:57.396Z,102267.16
2022-09-22T02:49:29.009Z,102274.94
2022-09-22T02:51:57.189Z,102277.13
2022-09-22T02:54:25.059Z,102275.47
2022-09-22T02:56:52.963Z,102280.91
2022-09-22T02:59:21.128Z,102275.03
2022-09-22T03:01:49.907Z,102268.38
2022-09-22T03:04:17.838Z,102271.22
2022-09-22T03:06:47.108Z,102272.63
2022-09-22T03:09:17.526Z,102267.59
2022-09-22T03:11:45.916Z,102263.66
2022-09-22T03:14:13.782Z,102267.72
2022-09-22T03:16:41.628Z,102262.44
2022-09-22T03:19:09.496Z,102269.16
2022-09-22T03:21:37.356Z,102262.06
2022-09-22T03:24:06.946Z,102265.88
2022-09-22T03:26:35.471Z,102268.91
2022-09-22T03:29:03.299Z,102266.38
2022-09-22T03:31:31.132Z,102264.34
2022-09-22T03:33:59.153Z,102264.75
2022-09-22T03:36:27.015Z,102263.78
2022-09-22T03:38:54.857Z,102268.66
2022-09-22T03:41:24.167Z,102268.81
2022-09-22T03:43:52.036Z,102266.06
2022-09-22T03:46:19.996Z,102269.94
2022-09-22T03:48:47.962Z,102268.03
2022-09-22T03:51:15.884Z,102261.13
2022-09-22T03:53:43.760Z,102263.97
2022-09-22T03:56:14.891Z,102266.47
2022-09-22T03:58:44.965Z,102263.72
2022-09-22T04:01:13.201Z,102264.75
2022-09-22T04:03:41.126Z,102260.25
2022-09-22T04:06:09.359Z,102250.81
2022-09-22T04:08:37.369Z,102254.44
2022-09-22T04:11:06.755Z,102252.47
2022-09-22T04:13:35.383Z,102253.50
2022-09-22T04:16:05.231Z,102245.47
2022-09-22T04:18:33.691Z,102257.31
2022-09-22T04:21:01.515Z,102251.88
2022-09-22T04:23:29.406Z,102256.19
2022-09-22T04:25:57.260Z,102252.75
2022-09-22T04:28:25.088Z,102248.03
2022-09-22T04:30:52.933Z,102257.97
2022-09-22T04:33:23.070Z,102257.53
2022-09-22T04:35:51.233Z,102248.50
2022-09-22T04:38:19.791Z,102248.72
2022-09-22T04:40:49.611Z,102246.97
2022-09-22T04:43:17.456Z,102254.84
2022-09-22T04:45:46.239Z,102253.19
2022-09-22T04:48:14.097Z,102255.50
2022-09-22T04:50:47.814Z,102248.22
2022-09-22T04:53:16.489Z,102254.66
2022-09-22T04:55:44.302Z,102258.94
2022-09-22T04:58:12.163Z,102260.84
2022-09-22T05:00:40.020Z,102253.69
2022-09-22T05:03:12.234Z,102257.31
2022-09-22T05:05:40.534Z,102261.66
2022-09-22T05:08:10.234Z,102253.66
2022-09-22T05:10:38.124Z,102265.63
2022-09-22T05:13:06.732Z,102263.78
2022-09-22T05:15:34.849Z,102261.44
2022-09-22T05:18:02.942Z,102261.22
2022-09-22T05:20:30.958Z,102263.38
2022-09-22T05:22:58.810Z,102263.53
2022-09-22T05:25:28.198Z,102262.38
2022-09-22T05:27:56.724Z,102270.13
2022-09-22T05:30:26.247Z,102266.59
2022-09-22T05:32:54.384Z,102268.16
2022-09-22T05:35:23.805Z,102263.22
2022-09-22T05:37:53.394Z,102269.06
2022-09-22T05:40:24.040Z,102269.91
2022-09-22T05:42:54.713Z,102274.69
2022-09-22T05:45:22.708Z,102273.56
2022-09-22T05:47:50.760Z,102274.31
2022-09-22T05:50:20.053Z,102276.84
2022-09-22T05:52:48.213Z,102269.78
2022-09-22T05:55:16.064Z,102275.13
2022-09-22T05:57:44.389Z,102280.41
2022-09-22T06:00:14.433Z,102271.06
2022-09-22T06:02:44.666Z,102279.72
2022-09-22T06:05:14.077Z,102278.31
2022-09-22T06:07:43.789Z,102279.19
2022-09-22T06:10:12.732Z,102275.97
2022-09-22T06:12:40.967Z,102281.25
2022-09-22T06:15:09.315Z,102282.88
2022-09-22T06:17:38.561Z,102271.06
2022-09-22T06:20:08.514Z,102278.63
2022-09-22T06:22:36.406Z,102285.03
2022-09-22T06:25:04.441Z,102283.00
2022-09-22T06:27:32.267Z,102280.69
2022-09-22T06:30:00.103Z,102284.47
2022-09-22T06:32:27.956Z,102295.28
2022-09-22T06:34:59.781Z,102292.59
2022-09-22T06:37:27.650Z,102291.56
2022-09-22T06:39:55.477Z,102288.50
2022-09-22T06:42:23.335Z,102283.00
2022-09-22T06:44:51.422Z,102283.50
2022-09-22T06:47:19.236Z,102276.16
2022-09-22T06:49:47.273Z,102277.03
2022-09-22T06:52:16.502Z,102287.97
2022-09-22T06:54:44.402Z,102275.16
2022-09-22T06:57:13.134Z,102274.59
2022-09-22T06:59:41.300Z,102274.50
2022-09-22T07:02:10.851Z,102275.75
2022-09-22T07:04:38.760Z,102271.69
2022-09-22T07:07:06.637Z,102274.78
2022-09-22T07:09:35.871Z,102272.66
2022-09-22T07:12:03.686Z,102275.63
2022-09-22T07:14:32.656Z,102270.38
2022-09-22T07:17:00.887Z,102279.41
2022-09-22T07:19:28.812Z,102276.28
2022-09-22T07:21:57.476Z,102276.28
2022-09-22T07:24:27.821Z,102274.81
2022-09-22T07:26:57.040Z,102274.72
2022-09-22T07:29:24.964Z,102272.19
2022-09-22T07:31:53.404Z,102269.34
2022-09-22T07:34:21.286Z,102263.97
2022-09-22T07:36:51.455Z,102268.53
2022-09-22T07:39:19.396Z,102262.78
2022-09-22T07:41:48.089Z,102263.38
2022-09-22T07:44:34.910Z,102261.91
2022-09-22T07:47:04.988Z,102255.94
2022-09-22T07:49:33.597Z,102269.09
2022-09-22T07:52:01.477Z,102255.66
2022-09-22T07:54:29.378Z,102258.66
2022-09-22T07:56:59.262Z,102261.25
2022-09-22T07:59:28.644Z,102264.38
2022-09-22T08:01:56.606Z,102261.06
2022-09-22T08:04:26.694Z,102269.03
2022-09-22T08:06:56.365Z,102265.47
2022-09-22T08:09:25.787Z,102259.38
2022-09-22T08:11:55.073Z,102259.06
2022-09-22T08:14:23.881Z,102261.53
2022-09-22T08:16:54.232Z,102267.94
2022-09-22T08:19:24.355Z,102262.53
2022-09-22T08:21:54.137Z,102266.19
2022-09-22T08:24:23.797Z,102268.34
2022-09-22T08:26:56.022Z,102265.13
2022-09-22T08:29:24.815Z,102253.28
2022-09-22T08:31:54.474Z,102262.53
2022-09-22T08:34:22.970Z,102265.81
2022-09-22T08:36:50.817Z,102271.28
2022-09-22T08:39:19.464Z,102269.56
2022-09-22T08:42:04.202Z,102266.34
2022-09-22T08:44:37.441Z,102268.22
2022-09-22T08:47:07.047Z,102270.38
2022-09-22T08:49:58.397Z,102270.44
2022-09-22T08:52:32.419Z,102270.06
2022-09-22T08:55:02.422Z,102268.63
2022-09-22T08:57:49.559Z,102257.06
2022-09-22T09:00:20.081Z,102262.34
2022-09-22T09:03:01.763Z,102261.63
2022-09-22T09:05:50.838Z,102256.63
2022-09-22T09:08:31.000Z,102263.19
2022-09-22T09:11:09.078Z,102255.19
2022-09-22T09:13:55.122Z,102258.44
2022-09-22T09:16:38.355Z,102257.13
2022-09-22T09:19:15.820Z,102254.38
2022-09-22T09:21:50.597Z,102245.16
2022-09-22T09:27:18.195Z,102258.88
2022-09-22T09:29:57.003Z,102245.88
2022-09-22T09:32:33.170Z,102244.69
2022-09-22T09:37:36.898Z,102244.78
2022-09-22T09:40:08.918Z,102241.03
2022-09-22T09:42:36.950Z,102242.16
2022-09-22T09:45:05.758Z,102237.88
2022-09-22T09:47:47.730Z,102238.75
2022-09-22T09:50:17.314Z,102228.69
2022-09-22T09:52:46.072Z,102229.16
2022-09-22T09:55:27.205Z,102230.66
2022-09-22T09:58:10.886Z,102228.69
2022-09-22T10:00:55.113Z,102224.88
2022-09-22T10:03:29.944Z,102221.63
2022-09-22T10:06:02.897Z,102220.84
2022-09-22T10:08:36.490Z,102219.00
2022-09-22T10:11:05.627Z,102212.69
2022-09-22T10:13:36.714Z,102220.34
2022-09-22T10:16:20.889Z,102223.66
2022-09-22T10:18:50.195Z,102220.09
2022-09-22T10:21:21.496Z,102227.88
2022-09-22T10:23:50.868Z,102226.94
2022-09-22T10:26:26.308Z,102208.53
2022-09-22T10:29:18.177Z,102214.75
2022-09-22T10:32:04.764Z,102211.25
2022-09-22T10:34:35.482Z,102204.22
2022-09-22T10:37:10.412Z,102207.84
2022-09-22T10:39:44.648Z,102213.75
2022-09-22T10:42:38.167Z,102205.94
2022-09-22T10:45:08.484Z,102209.56
2022-09-22T10:47:52.414Z,102211.78
2022-09-22T10:50:42.988Z,102213.75
2022-09-22T10:53:42.571Z,102223.47
2022-09-22T10:56:20.950Z,102222.56
2022-09-22T10:59:16.777Z,102227.25
2022-09-22T11:01:56.366Z,102225.50
2022-09-22T11:04:42.634Z,102215.19
2022-09-22T11:07:54.317Z,102219.38
2022-09-22T11:11:05.247Z,102220.84
2022-09-22T11:13:47.138Z,102222.13
2022-09-22T11:16:47.108Z,102215.75
2022-09-22T11:19:48.515Z,102217.09
2022-09-22T11:22:34.912Z,102211.09
2022-09-22T11:25:24.719Z,102203.22
2022-09-22T11:28:13.507Z,102211.09
2022-09-22T11:30:47.231Z,102217.25
2022-09-22T11:33:40.466Z,102201.81
2022-09-22T11:36:27.091Z,102194.91
2022-09-22T11:39:20.495Z,102193.19
2022-09-22T11:41:56.475Z,102191.94
2022-09-22T11:44:37.351Z,102183.59
2022-09-22T11:47:26.438Z,102190.09
2022-09-22T11:50:27.869Z,102178.41
2022-09-22T11:53:21.263Z,102181.91
2022-09-22T11:56:03.055Z,102183.69
2022-09-22T11:58:34.248Z,102181.38
2022-09-22T12:01:12.975Z,102182.75
2022-09-22T12:03:47.474Z,102175.72
2022-09-22T12:06:18.783Z,102182.94
2022-09-22T12:11:29.073Z,102161.59
2022-09-22T12:13:58.920Z,102155.25
2022-09-22T12:16:41.795Z,102155.50
2022-09-22T12:19:18.112Z,102152.34
2022-09-22T12:21:52.712Z,102147.91
2022-09-22T12:24:21.047Z,102140.50
2022-09-22T12:26:50.883Z,102140.63
2022-09-22T12:29:27.468Z,102145.78
2022-09-22T12:31:59.067Z,102151.41
2022-09-22T12:34:29.369Z,102147.25
2022-09-22T12:37:00.248Z,102134.81
2022-09-22T12:39:30.944Z,102136.41
2022-09-22T12:42:01.247Z,102143.78
2022-09-22T12:44:32.504Z,102150.31
2022-09-22T12:47:06.600Z,102132.84
2022-09-22T12:49:35.270Z,102133.72
2022-09-22T12:52:03.371Z,102140.50
2022-09-22T12:54:40.108Z,102142.78
2022-09-22T12:57:27.377Z,102134.44
2022-09-22T13:00:20.576Z,102131.94
2022-09-22T13:02:51.072Z,102134.59
2022-09-22T13:05:36.491Z,102132.13
2022-09-22T13:08:04.748Z,102120.34
2022-09-22T13:10:42.227Z,102120.91
2022-09-22T13:13:23.882Z,102125.50
2022-09-22T13:15:59.353Z,102133.09
2022-09-22T13:18:34.860Z,102119.25
2022-09-22T13:21:04.573Z,102114.53
2022-09-22T13:23:32.479Z,102100.25
2022-09-22T13:26:08.047Z,102109.34
2022-09-22T13:28:36.036Z,102104.34
2022-09-22T13:31:06.412Z,102106.97
2022-09-22T13:33:37.606Z,102091.56
2022-09-22T13:36:08.863Z,102089.06
2022-09-22T13:38:39.255Z,102094.81
2022-09-22T13:41:12.594Z,102082.63
2022-09-22T13:43:42.759Z,102089.81
2022-09-22T13:46:20.110Z,102085.28
2022-09-22T13:48:51.163Z,102081.28
2022-09-22T13:51:19.098Z,102068.91
2022-09-22T13:53:52.417Z,102079.53
2022-09-22T13:56:22.101Z,102071.41
2022-09-22T13:58:52.769Z,102072.00
2022-09-22T14:01:22.568Z,102070.78
2022-09-22T14:03:53.343Z,102068.94
2022-09-22T14:06:23.941Z,102068.59
2022-09-22T14:08:55.036Z,102071.59
2022-09-22T14:11:25.909Z,102065.72
2022-09-22T14:14:01.809Z,102064.41
2022-09-22T14:16:35.206Z,102071.28
2022-09-22T14:19:08.854Z,102059.25
2022-09-22T14:21:45.577Z,102072.38
2022-09-22T14:24:15.329Z,102074.13
2022-09-22T14:26:48.676Z,102073.91
2022-09-22T14:29:18.737Z,102069.53
2022-09-22T14:31:52.158Z,102065.66
2022-09-22T14:34:26.605Z,102069.19
2022-09-22T14:36:56.341Z,102069.75
2022-09-22T14:39:31.873Z,102063.88
2022-09-22T14:42:10.374Z,102069.00
2022-09-22T14:44:43.726Z,102061.44
2022-09-22T14:47:20.618Z,102065.72
2022-09-22T14:49:50.098Z,102061.44
2022-09-22T14:52:28.480Z,102064.97
2022-09-22T14:54:59.486Z,102054.22
2022-09-22T14:57:28.047Z,102058.94
2022-09-22T15:00:16.384Z,102054.16
2022-09-22T15:02:51.045Z,102053.31
2022-09-22T15:05:30.173Z,102052.97
2022-09-22T15:07:59.482Z,102053.59
2022-09-22T15:10:30.360Z,102051.25
2022-09-22T15:13:19.668Z,102048.53
2022-09-22T15:15:50.623Z,102046.13
2022-09-22T15:18:19.543Z,102049.94
2022-09-22T15:20:51.647Z,102053.50
2022-09-22T15:23:24.085Z,102037.53
2022-09-22T15:25:53.413Z,102037.09
2022-09-22T15:28:23.926Z,102044.34
2022-09-22T15:30:58.346Z,102035.88
2022-09-22T15:33:27.739Z,102034.13
2022-09-22T15:36:03.158Z,102028.09
2022-09-22T15:38:32.766Z,102035.81
2022-09-22T15:41:01.182Z,102037.13
2022-09-22T15:43:30.987Z,102030.19
2022-09-22T15:46:03.622Z,102034.97
2022-09-22T15:48:33.894Z,102035.00
2022-09-22T15:51:05.529Z,102029.91
2022-09-22T15:53:34.069Z,102031.72
2022-09-22T15:56:04.915Z,102025.44
2022-09-22T15:58:36.234Z,102025.31
2022-09-22T16:01:05.622Z,102013.84
2022-09-22T16:03:38.956Z,102016.00
2022-09-22T16:06:14.093Z,102012.97
2022-09-22T16:08:44.418Z,102017.94
2022-09-22T16:11:14.612Z,102030.56
2022-09-22T16:13:43.165Z,102024.50
2022-09-22T16:16:12.623Z,102025.34
2022-09-22T16:18:41.844Z,102025.22
2022-09-22T16:21:26.034Z,102020.31
2022-09-22T16:23:54.767Z,102014.16
2022-09-22T16:26:22.659Z,102021.44
2022-09-22T16:28:50.564Z,102024.13
2022-09-22T16:31:19.102Z,102019.19
2022-09-22T16:33:51.163Z,102018.16
2022-09-22T16:36:20.408Z,102020.00
2022-09-22T16:38:48.292Z,102018.06
2022-09-22T16:41:20.805Z,102022.06
2022-09-22T16:43:48.772Z,102022.06
2022-09-22T16:46:30.012Z,102018.88
2022-09-22T16:49:00.431Z,102016.31
2022-09-22T16:51:30.522Z,102016.25
2022-09-22T16:53:58.602Z,102020.97
2022-09-22T16:56:28.432Z,102023.59
2022-09-22T16:58:56.685Z,102020.75
2022-09-22T17:01:25.087Z,102026.16
2022-09-22T17:03:53.770Z,102031.28
2022-09-22T17:06:25.134Z,102021.00
2022-09-22T17:08:57.067Z,102016.84
2022-09-22T17:11:29.619Z,102023.34
2022-09-22T17:14:01.359Z,102032.78
2022-09-22T17:16:30.840Z,102037.50
2022-09-22T17:19:02.964Z,102031.97
2022-09-22T17:21:34.454Z,102028.66
2022-09-22T17:24:05.716Z,102031.63
2022-09-22T17:26:35.547Z,102022.06
2022-09-22T17:29:03.521Z,102024.78
2022-09-22T17:31:32.177Z,102024.16
2022-09-22T17:34:00.127Z,102027.00
2022-09-22T17:36:29.886Z,102031.53
2022-09-22T17:38:59.491Z,102026.03
2022-09-22T17:41:31.370Z,102026.50
2022-09-22T17:44:01.337Z,102036.31
2022-09-22T17:46:31.027Z,102037.75
2022-09-22T17:49:16.451Z,102021.69
2022-09-22T17:52:08.608Z,102027.06
2022-09-22T17:54:56.701Z,102028.81
2022-09-22T17:57:28.168Z,102025.97
2022-09-22T17:59:57.035Z,102019.72
2022-09-22T18:02:27.298Z,102028.88
2022-09-22T18:04:55.758Z,102026.53
2022-09-22T18:07:25.284Z,102023.56
2022-09-22T18:09:55.434Z,102026.59
2022-09-22T18:12:25.589Z,102030.00
2022-09-22T18:14:55.694Z,102033.69
2022-09-22T18:17:26.268Z,102041.66
2022-09-22T18:19:55.566Z,102045.91
2022-09-22T18:22:24.733Z,102040.53
2022-09-22T18:24:55.512Z,102037.56
2022-09-22T18:27:26.921Z,102042.19
2022-09-22T18:29:58.523Z,102038.50
2022-09-22T18:32:27.101Z,102039.69
2022-09-22T18:34:55.362Z,102046.63
2022-09-22T18:37:24.624Z,102045.19
2022-09-22T18:39:52.513Z,102043.47
2022-09-22T18:42:22.704Z,102044.38
2022-09-22T18:44:52.245Z,102045.16
2022-09-22T18:47:23.044Z,102042.91
2022-09-22T18:49:51.711Z,102044.13
2022-09-22T18:52:22.969Z,102037.13
2022-09-22T18:54:53.066Z,102038.19
2022-09-22T18:57:21.682Z,102043.25
2022-09-22T18:59:51.148Z,102041.53
2022-09-22T19:02:22.874Z,102037.13
2022-09-22T19:04:52.224Z,102042.97
2022-09-22T19:07:42.416Z,102043.84
2022-09-22T19:10:11.691Z,102046.88
2022-09-22T19:12:40.372Z,102041.16
2022-09-22T19:15:14.985Z,102052.69
2022-09-22T19:17:44.678Z,102046.47
2022-09-22T19:20:15.723Z,102045.59
2022-09-22T19:22:43.982Z,102048.91
2022-09-22T19:25:12.160Z,102046.56
2022-09-22T19:27:40.796Z,102050.53
2022-09-22T19:30:11.959Z,102052.47
2022-09-22T19:32:40.974Z,102054.19
2022-09-22T19:35:09.896Z,102047.09
2022-09-22T19:37:37.815Z,102044.84
2022-09-22T19:40:07.916Z,102053.56
2022-09-22T19:42:40.363Z,102045.91
2022-09-22T19:45:10.651Z,102042.25
2022-09-22T19:47:39.506Z,102046.03
2022-09-22T19:50:08.781Z,102043.69
2022-09-22T19:52:38.309Z,102044.28
2022-09-22T19:55:07.284Z,102046.66
2022-09-22T19:57:41.177Z,102054.63
2022-09-22T20:00:13.088Z,102047.72
2022-09-22T20:02:41.216Z,102042.44
2022-09-22T20:05:19.056Z,102041.25
2022-09-22T20:07:46.917Z,102050.03
2022-09-22T20:10:15.172Z,102049.94
2022-09-22T20:12:43.037Z,102041.22
2022-09-22T20:15:15.514Z,102036.31
2022-09-22T20:17:46.285Z,102035.44
2022-09-22T20:20:15.427Z,102035.72
2022-09-22T20:22:43.465Z,102032.94
2022-09-22T20:25:22.279Z,102037.56
2022-09-22T20:27:50.252Z,102041.31
2022-09-22T20:30:19.743Z,102030.22
2022-09-22T20:32:47.844Z,102020.25
2022-09-22T20:35:18.030Z,102033.53
2022-09-22T20:37:48.953Z,102040.41
2022-09-22T20:40:23.065Z,102031.50
2022-09-22T20:42:54.184Z,102029.81
2022-09-22T20:45:24.909Z,102033.13
2022-09-22T20:47:52.752Z,102036.81
2022-09-22T20:50:21.204Z,102026.50
2022-09-22T20:52:49.179Z,102028.91
2022-09-22T20:55:17.561Z,102036.50
2022-09-22T20:57:45.478Z,102038.50
2022-09-22T21:00:15.271Z,102032.69
2022-09-22T21:02:44.686Z,102029.91
2022-09-22T21:05:12.745Z,102029.06
2022-09-22T21:07:40.568Z,102027.81
2022-09-22T21:10:26.330Z,102033.41
2022-09-22T21:12:55.973Z,102032.25
2022-09-22T21:15:24.197Z,102037.94
2022-09-22T21:17:53.578Z,102035.41
2022-09-22T21:20:21.606Z,102023.28
2022-09-22T21:22:49.544Z,102025.69
2022-09-22T21:25:17.646Z,102028.31
2022-09-22T21:27:47.066Z,102033.25
2022-09-22T21:30:15.148Z,102030.97
2022-09-22T21:32:42.968Z,102029.53
2022-09-22T21:35:16.491Z,102039.06
2022-09-22T21:37:44.646Z,102027.38
2022-09-22T21:40:12.647Z,102029.53
2022-09-22T21:42:40.557Z,102033.94
2022-09-22T21:45:09.416Z,102035.59
2022-09-22T21:47:37.229Z,102031.78
2022-09-22T21:50:05.805Z,102032.53
2022-09-22T21:52:36.983Z,102030.16
2022-09-22T21:55:05.523Z,102034.38
2022-09-22T21:57:33.343Z,102027.19
2022-09-22T22:00:01.263Z,102018.91
2022-09-22T22:02:49.082Z,102031.56
2022-09-22T22:05:16.973Z,102028.22
2022-09-22T22:07:46.158Z,102033.00
2022-09-22T22:10:15.550Z,102025.44
2022-09-22T22:12:44.949Z,102029.09
2022-09-22T22:15:14.966Z,102025.63
2022-09-22T22:17:42.819Z,102026.13
2022-09-22T22:20:10.877Z,102022.78
2022-09-22T22:22:38.687Z,102029.38
2022-09-22T22:25:12.838Z,102029.88
2022-09-22T22:27:41.042Z,102032.38
2022-09-22T22:30:10.416Z,102025.00
2022-09-22T22:32:38.315Z,102026.72
2022-09-22T22:35:07.284Z,102023.56
2022-09-22T22:37:35.116Z,102019.91
2022-09-22T22:40:03.224Z,102015.69
2022-09-22T22:42:32.494Z,102018.88
2022-09-22T22:45:00.342Z,102023.94
2022-09-22T22:47:28.187Z,102023.81
2022-09-22T22:49:56.010Z,102018.88
2022-09-22T22:52:23.869Z,102020.28
2022-09-22T22:54:52.638Z,102024.22
2022-09-22T22:57:20.478Z,102017.81
2022-09-22T22:59:49.709Z,102016.88
2022-09-22T23:02:17.570Z,102018.19
2022-09-22T23:04:45.370Z,102013.59
2022-09-22T23:07:13.295Z,102021.81
2022-09-22T23:09:41.131Z,102022.03
2022-09-22T23:12:10.601Z,102019.81
2022-09-22T23:14:38.478Z,102017.03
2022-09-22T23:17:07.733Z,102014.84
2022-09-22T23:19:35.990Z,102018.84
2022-09-22T23:22:04.773Z,102009.97
2022-09-22T23:24:32.718Z,102016.50
2022-09-22T23:27:00.532Z,102017.97
2022-09-22T23:29:28.371Z,102014.34
2022-09-22T23:31:56.415Z,102012.34
2022-09-22T23:34:25.660Z,102007.66
2022-09-22T23:36:53.667Z,101995.59
2022-09-22T23:39:21.764Z,101994.81
2022-09-22T23:41:51.291Z,101989.38
2022-09-22T23:44:19.261Z,101982.19
2022-09-22T23:46:47.081Z,101983.28
2022-09-22T23:49:14.964Z,101985.06
2022-09-22T23:51:44.661Z,101975.59
2022-09-22T23:54:14.059Z,101978.91
2022-09-22T23:56:41.916Z,101974.34
2022-09-22T23:59:09.815Z,101979.13
